createdAt,value
2022-12-23T00:00:20.376Z,417.80
2022-12-23T00:03:23.821Z,328.30
2022-12-23T00:06:26.740Z,331.43
2022-12-23T00:09:29.943Z,455.98
2022-12-23T00:12:51.113Z,349.48
2022-12-23T00:16:07.316Z,294.17
2022-12-23T00:19:10.780Z,389.67
2022-12-23T00:22:13.832Z,402.63
2022-12-23T00:25:16.823Z,277.33
2022-12-23T00:28:22.671Z,268.88
2022-12-23T00:31:25.872Z,113.88
2022-12-23T00:34:28.966Z,88.93
2022-12-23T00:37:31.470Z,94.90
2022-12-23T00:40:53.748Z,200.48
2022-12-23T00:43:56.451Z,175.30
2022-12-23T00:46:59.534Z,188.07
2022-12-23T00:50:02.169Z,172.00
2022-12-23T00:53:05.957Z,181.93
2022-12-23T00:56:08.577Z,106.12
2022-12-23T00:59:11.613Z,126.47
2022-12-23T01:02:32.577Z,274.23
2022-12-23T01:05:38.888Z,115.53
2022-12-23T01:08:41.626Z,128.47
2022-12-23T01:11:44.508Z,123.18
2022-12-23T01:14:47.151Z,135.25
2022-12-23T01:17:50.009Z,87.78
2022-12-23T01:20:52.608Z,105.60
2022-12-23T01:23:55.545Z,102.60
2022-12-23T01:26:58.449Z,94.28
2022-12-23T01:30:01.324Z,76.53
2022-12-23T01:33:04.015Z,71.55
2022-12-23T01:36:08.454Z,106.70
2022-12-23T01:39:11.076Z,172.67
2022-12-23T01:42:34.531Z,153.87
2022-12-23T01:45:37.502Z,160.95
2022-12-23T01:48:41.991Z,157.60
2022-12-23T01:51:44.649Z,63.35
2022-12-23T01:54:48.045Z,118.83
2022-12-23T01:57:52.300Z,85.72
2022-12-23T02:01:15.947Z,105.07
2022-12-23T02:04:22.120Z,82.45
2022-12-23T02:07:43.256Z,132.43
2022-12-23T02:11:19.933Z,152.47
2022-12-23T02:15:31.163Z,125.05
2022-12-23T02:18:46.289Z,177.60
2022-12-23T02:21:51.875Z,180.93
2022-12-23T02:24:57.631Z,284.80
2022-12-23T02:28:20.408Z,97.80
2022-12-23T02:31:29.920Z,77.00
2022-12-23T02:34:51.816Z,353.67
2022-12-23T02:38:13.895Z,115.35
2022-12-23T02:41:31.615Z,84.97
2022-12-23T02:44:45.134Z,163.23
2022-12-23T02:48:05.531Z,111.93
2022-12-23T02:51:09.224Z,369.08
2022-12-23T02:54:24.141Z,159.82
2022-12-23T02:57:34.945Z,307.25
2022-12-23T03:00:38.778Z,58.77
2022-12-23T03:03:41.827Z,175.32
2022-12-23T03:06:50.050Z,238.68
2022-12-23T03:10:09.114Z,410.65
2022-12-23T03:13:30.505Z,369.92
2022-12-23T03:17:01.219Z,449.30
2022-12-23T03:20:12.787Z,366.40
2022-12-23T03:23:16.770Z,382.40
2022-12-23T03:26:23.274Z,468.58
2022-12-23T03:29:39.166Z,395.83
2022-12-23T03:32:59.736Z,407.70
2022-12-23T03:36:07.666Z,130.90
2022-12-23T03:39:14.620Z,339.73
2022-12-23T03:42:33.913Z,465.25
2022-12-23T03:45:41.724Z,229.73
2022-12-23T03:48:52.563Z,138.70
2022-12-23T03:52:08.090Z,100.30
2022-12-23T03:55:17.378Z,334.70
2022-12-23T03:58:56.556Z,385.80
2022-12-23T04:02:02.649Z,408.90
2022-12-23T04:05:42.830Z,512.23
2022-12-23T04:08:46.559Z,273.42
2022-12-23T04:11:49.796Z,366.52
2022-12-23T04:14:52.352Z,348.98
2022-12-23T04:17:56.841Z,206.10
2022-12-23T04:21:01.066Z,257.90
2022-12-23T04:24:03.940Z,252.20
2022-12-23T04:27:08.023Z,189.05
2022-12-23T04:30:14.025Z,370.67
2022-12-23T04:33:16.873Z,279.85
2022-12-23T04:36:20.080Z,386.90
2022-12-23T04:39:25.759Z,291.90
2022-12-23T04:42:29.457Z,364.48
2022-12-23T04:45:32.706Z,494.20
2022-12-23T04:48:36.260Z,592.10
2022-12-23T04:51:38.745Z,594.33
2022-12-23T04:54:45.913Z,493.02
2022-12-23T04:57:49.244Z,491.45
2022-12-23T05:01:08.378Z,395.35
2022-12-23T05:04:10.987Z,436.35
2022-12-23T05:07:14.101Z,451.47
2022-12-23T05:10:16.884Z,428.05
2022-12-23T05:13:20.237Z,303.08
2022-12-23T05:16:23.152Z,225.45
2022-12-23T05:19:26.680Z,238.20
2022-12-23T05:22:29.337Z,212.93
2022-12-23T05:25:34.058Z,203.30
2022-12-23T05:28:36.666Z,374.77
2022-12-23T05:31:39.553Z,191.65
2022-12-23T05:34:42.163Z,155.63
2022-12-23T05:37:44.990Z,140.87
2022-12-23T05:40:49.928Z,334.08
2022-12-23T05:43:52.856Z,117.20
2022-12-23T05:46:55.488Z,176.02
2022-12-23T05:49:58.316Z,219.62
2022-12-23T05:53:00.945Z,143.80
2022-12-23T05:56:05.940Z,266.83
2022-12-23T05:59:08.457Z,227.82
2022-12-23T06:02:11.540Z,336.10
2022-12-23T06:05:14.759Z,316.42
2022-12-23T06:08:20.546Z,360.23
2022-12-23T06:11:23.409Z,186.40
2022-12-23T06:14:28.986Z,286.95
2022-12-23T06:17:32.978Z,281.48
2022-12-23T06:20:36.485Z,161.55
2022-12-23T06:23:39.672Z,173.53
2022-12-23T06:26:42.345Z,204.30
2022-12-23T06:29:45.630Z,86.53
2022-12-23T06:32:48.234Z,191.57
2022-12-23T06:35:51.161Z,145.43
2022-12-23T06:38:53.888Z,136.93
2022-12-23T06:41:56.946Z,76.75
2022-12-23T06:44:59.524Z,179.77
2022-12-23T06:48:02.888Z,156.02
2022-12-23T06:51:05.905Z,253.88
2022-12-23T06:54:11.597Z,249.00
2022-12-23T06:57:14.297Z,187.62
2022-12-23T07:00:19.035Z,169.90
2022-12-23T07:03:21.784Z,282.50
2022-12-23T07:06:25.051Z,336.40
2022-12-23T07:09:27.869Z,252.13
2022-12-23T07:12:30.947Z,285.67
2022-12-23T07:15:33.578Z,169.80
2022-12-23T07:18:36.900Z,47.75
2022-12-23T07:21:39.474Z,59.45
2022-12-23T07:24:42.397Z,179.10
2022-12-23T07:27:45.044Z,138.12
2022-12-23T07:30:50.490Z,160.10
2022-12-23T07:33:53.201Z,166.15
2022-12-23T07:36:56.202Z,117.75
2022-12-23T07:40:02.148Z,77.80
2022-12-23T07:43:09.468Z,132.50
2022-12-23T07:46:12.090Z,161.12
2022-12-23T07:49:15.099Z,129.93
2022-12-23T07:52:18.188Z,318.15
2022-12-23T07:55:21.244Z,223.63
2022-12-23T07:58:24.237Z,296.52
2022-12-23T08:01:27.179Z,114.82
2022-12-23T08:04:30.395Z,194.95
2022-12-23T08:07:33.016Z,109.32
2022-12-23T08:10:36.149Z,153.33
2022-12-23T08:13:40.306Z,92.35
2022-12-23T08:16:44.335Z,100.82
2022-12-23T08:19:48.331Z,146.43
2022-12-23T08:22:51.122Z,115.60
2022-12-23T08:26:06.315Z,169.93
2022-12-23T08:29:10.875Z,181.45
2022-12-23T08:32:13.350Z,357.02
2022-12-23T08:35:16.159Z,140.52
2022-12-23T08:38:18.809Z,263.75
2022-12-23T08:41:25.769Z,220.57
2022-12-23T08:44:28.783Z,241.60
2022-12-23T08:47:31.789Z,151.85
2022-12-23T08:50:42.661Z,223.57
2022-12-23T08:53:47.204Z,117.93
2022-12-23T08:56:49.754Z,122.77
2022-12-23T08:59:52.545Z,108.03
2022-12-23T09:02:55.188Z,351.90
2022-12-23T09:05:58.165Z,223.60
2022-12-23T09:09:00.685Z,139.50
2022-12-23T09:12:04.522Z,211.57
2022-12-23T09:15:07.658Z,139.25
2022-12-23T09:18:11.483Z,301.17
2022-12-23T09:21:18.588Z,179.05
2022-12-23T09:24:21.433Z,149.93
2022-12-23T09:27:24.046Z,92.33
2022-12-23T09:30:28.116Z,146.00
2022-12-23T09:33:31.434Z,100.10
2022-12-23T09:36:34.466Z,131.75
2022-12-23T09:39:37.038Z,124.20
2022-12-23T09:43:09.123Z,59.87
2022-12-23T09:46:22.089Z,108.12
2022-12-23T09:49:25.107Z,52.42
2022-12-23T09:52:40.780Z,53.33
2022-12-23T09:55:55.525Z,52.97
2022-12-23T09:59:39.641Z,77.97
2022-12-23T10:03:01.511Z,53.17
2022-12-23T10:06:13.385Z,56.92
2022-12-23T10:09:17.524Z,47.55
2022-12-23T10:12:39.385Z,56.75
2022-12-23T10:15:48.509Z,97.47
2022-12-23T10:19:04.766Z,80.15
2022-12-23T10:22:13.224Z,71.60
2022-12-23T10:25:18.451Z,115.82
2022-12-23T10:28:21.481Z,86.00
2022-12-23T10:31:40.786Z,75.40
2022-12-23T10:35:21.750Z,122.20
2022-12-23T10:38:30.321Z,69.62
2022-12-23T10:41:32.777Z,81.25
2022-12-23T10:44:49.642Z,97.80
2022-12-23T10:48:07.416Z,63.63
2022-12-23T10:51:19.327Z,55.08
2022-12-23T10:54:33.984Z,76.22
2022-12-23T10:57:36.935Z,48.55
2022-12-23T11:00:45.706Z,128.20
2022-12-23T11:03:58.184Z,139.20
2022-12-23T11:07:34.247Z,82.57
2022-12-23T11:10:32.982Z,92.20
2022-12-23T11:13:39.109Z,134.55
2022-12-23T11:16:45.732Z,114.57
2022-12-23T11:20:09.148Z,79.47
2022-12-23T11:23:36.639Z,88.72
2022-12-23T11:26:39.525Z,128.98
2022-12-23T11:29:49.341Z,95.53
2022-12-23T11:32:52.553Z,113.45
2022-12-23T11:36:04.765Z,121.57
2022-12-23T11:39:10.377Z,109.05
2022-12-23T11:42:18.711Z,88.53
2022-12-23T11:45:23.678Z,62.60
2022-12-23T11:48:28.953Z,208.35
2022-12-23T11:51:31.570Z,124.50
2022-12-23T11:54:34.415Z,142.87
2022-12-23T11:57:43.476Z,146.65
2022-12-23T12:00:56.112Z,159.07
2022-12-23T12:04:04.606Z,161.18
2022-12-23T12:07:07.428Z,175.13
2022-12-23T12:10:19.937Z,337.55
2022-12-23T12:13:40.248Z,173.27
2022-12-23T12:16:56.050Z,111.82
2022-12-23T12:20:18.100Z,174.57
2022-12-23T12:23:27.623Z,130.17
2022-12-23T12:26:32.502Z,192.68
2022-12-23T12:29:47.590Z,168.13
2022-12-23T12:33:05.218Z,162.10
2022-12-23T12:36:28.236Z,76.03
2022-12-23T12:39:46.033Z,101.77
2022-12-23T12:42:59.996Z,305.08
2022-12-23T12:46:21.540Z,215.70
2022-12-23T12:49:43.608Z,125.20
2022-12-23T12:52:46.225Z,150.30
2022-12-23T12:55:55.183Z,109.30
2022-12-23T12:58:58.274Z,59.25
2022-12-23T13:02:23.201Z,87.25
2022-12-23T13:06:01.007Z,52.70
2022-12-23T13:09:16.580Z,62.33
2022-12-23T13:12:53.963Z,59.30
2022-12-23T13:16:21.780Z,108.90
2022-12-23T13:20:12.842Z,83.87
2022-12-23T13:23:43.056Z,77.47
2022-12-23T13:26:59.236Z,139.68
2022-12-23T13:30:17.784Z,140.83
2022-12-23T13:33:29.906Z,143.87
2022-12-23T13:36:51.002Z,126.28
2022-12-23T13:40:19.364Z,59.83
2022-12-23T13:43:23.313Z,152.82
2022-12-23T13:46:25.992Z,104.50
2022-12-23T13:49:44.070Z,115.57
2022-12-23T13:53:17.613Z,158.82
2022-12-23T13:56:29.590Z,121.50
2022-12-23T13:59:44.163Z,85.22
2022-12-23T14:02:50.204Z,57.80
2022-12-23T14:05:53.465Z,68.80
2022-12-23T14:08:56.222Z,66.75
2022-12-23T14:12:10.185Z,81.93
2022-12-23T14:15:22.048Z,104.80
2022-12-23T14:18:44.211Z,138.67
2022-12-23T14:22:05.309Z,156.18
2022-12-23T14:25:20.382Z,159.73
2022-12-23T14:28:39.577Z,210.52
2022-12-23T14:31:44.999Z,251.80
2022-12-23T14:35:16.390Z,82.63
2022-12-23T14:38:27.639Z,66.03
2022-12-23T14:41:38.850Z,196.77
2022-12-23T14:44:45.847Z,143.18
2022-12-23T14:47:48.421Z,116.20
2022-12-23T14:50:59.682Z,175.57
2022-12-23T14:54:02.306Z,193.50
2022-12-23T14:57:08.232Z,86.10
2022-12-23T15:00:10.907Z,120.00
2022-12-23T15:03:13.926Z,102.47
2022-12-23T15:06:29.638Z,168.57
2022-12-23T15:09:36.997Z,124.43
2022-12-23T15:12:43.151Z,90.40
2022-12-23T15:16:00.673Z,79.03
2022-12-23T15:19:23.056Z,60.08
2022-12-23T15:22:32.593Z,69.23
2022-12-23T15:25:39.940Z,74.62
2022-12-23T15:28:42.956Z,71.85
2022-12-23T15:31:48.955Z,76.25
2022-12-23T15:34:52.728Z,70.07
2022-12-23T15:37:56.440Z,122.87
2022-12-23T15:41:05.596Z,57.42
2022-12-23T15:44:12.731Z,80.28
2022-12-23T15:47:24.791Z,69.53
2022-12-23T15:50:29.522Z,66.60
2022-12-23T15:53:35.211Z,98.10
2022-12-23T15:56:39.167Z,73.85
2022-12-23T15:59:41.943Z,64.12
2022-12-23T16:03:03.780Z,86.35
2022-12-23T16:06:16.690Z,85.65
2022-12-23T16:09:19.288Z,101.70
2022-12-23T16:12:24.494Z,141.60
2022-12-23T16:15:29.707Z,94.13
2022-12-23T16:18:47.029Z,75.12
2022-12-23T16:21:50.561Z,56.72
2022-12-23T16:25:12.541Z,71.53
2022-12-23T16:28:21.605Z,74.65
2022-12-23T16:31:24.887Z,60.50
2022-12-23T16:34:30.708Z,72.93
2022-12-23T16:37:33.526Z,75.15
2022-12-23T16:40:36.870Z,89.90
2022-12-23T16:43:40.728Z,131.32
2022-12-23T16:46:48.878Z,114.30
2022-12-23T16:49:51.698Z,101.00
2022-12-23T16:52:54.273Z,153.87
2022-12-23T16:56:00.913Z,145.57
2022-12-23T16:59:04.735Z,185.52
2022-12-23T17:02:18.878Z,186.55
2022-12-23T17:05:22.765Z,140.32
2022-12-23T17:08:25.644Z,97.28
2022-12-23T17:11:41.239Z,224.87
2022-12-23T17:14:44.687Z,137.82
2022-12-23T17:17:48.477Z,200.48
2022-12-23T17:20:51.810Z,179.38
2022-12-23T17:23:56.814Z,177.80
2022-12-23T17:26:59.629Z,238.67
2022-12-23T17:30:02.217Z,144.70
2022-12-23T17:33:05.598Z,85.70
2022-12-23T17:36:09.639Z,118.22
2022-12-23T17:39:12.825Z,77.65
2022-12-23T17:42:25.250Z,113.90
2022-12-23T17:45:30.927Z,164.73
2022-12-23T17:48:33.541Z,170.32
2022-12-23T17:51:36.615Z,205.07
2022-12-23T17:54:39.943Z,173.18
2022-12-23T17:57:42.749Z,78.43
2022-12-23T18:00:47.523Z,71.47
2022-12-23T18:03:51.800Z,39.63
2022-12-23T18:06:54.272Z,46.55
2022-12-23T18:09:57.320Z,155.27
2022-12-23T18:13:06.110Z,39.70
2022-12-23T18:16:11.419Z,50.72
2022-12-23T18:19:19.793Z,114.57
2022-12-23T18:22:24.065Z,99.47
2022-12-23T18:25:27.528Z,125.95
2022-12-23T18:28:30.452Z,113.23
2022-12-23T18:31:33.334Z,147.87
2022-12-23T18:34:36.175Z,143.37
2022-12-23T18:37:38.722Z,157.75
2022-12-23T18:40:42.714Z,141.23
2022-12-23T18:43:46.584Z,284.70
2022-12-23T18:46:50.396Z,321.77
2022-12-23T18:49:53.380Z,270.77
2022-12-23T18:52:58.021Z,244.02
2022-12-23T18:56:01.259Z,282.85
2022-12-23T18:59:04.493Z,177.67
2022-12-23T19:02:10.477Z,140.30
2022-12-23T19:05:36.901Z,85.80
2022-12-23T19:08:40.439Z,47.62
2022-12-23T19:11:43.552Z,164.48
2022-12-23T19:14:46.564Z,69.80
2022-12-23T19:17:50.709Z,64.82
2022-12-23T19:20:56.429Z,84.78
2022-12-23T19:24:00.312Z,39.75
2022-12-23T19:27:03.227Z,64.45
2022-12-23T19:30:13.941Z,54.90
2022-12-23T19:33:19.248Z,77.60
2022-12-23T19:36:23.108Z,146.98
2022-12-23T19:39:31.094Z,187.70
2022-12-23T19:42:34.674Z,119.93
2022-12-23T19:45:37.607Z,120.67
2022-12-23T19:48:40.668Z,177.80
2022-12-23T19:51:43.611Z,90.65
2022-12-23T19:54:47.505Z,69.30
2022-12-23T19:57:50.065Z,94.72
2022-12-23T20:00:53.853Z,204.60
2022-12-23T20:03:57.124Z,92.00
2022-12-23T20:06:59.931Z,82.32
2022-12-23T20:10:05.025Z,107.80
2022-12-23T20:13:09.399Z,86.50
2022-12-23T20:16:16.606Z,137.27
2022-12-23T20:19:19.855Z,94.95
2022-12-23T20:22:24.000Z,90.93
2022-12-23T20:25:27.086Z,110.20
2022-12-23T20:28:32.015Z,96.93
2022-12-23T20:31:37.657Z,144.00
2022-12-23T20:34:41.886Z,148.60
2022-12-23T20:37:46.217Z,61.15
2022-12-23T20:40:55.228Z,64.20
2022-12-23T20:47:21.620Z,106.10
2022-12-23T20:50:25.310Z,37.35
2022-12-23T20:53:30.664Z,78.70
2022-12-23T20:56:36.516Z,37.78
2022-12-23T20:59:40.223Z,80.95
2022-12-23T21:02:43.336Z,67.90
2022-12-23T21:05:46.620Z,112.07
2022-12-23T21:08:52.920Z,130.87
2022-12-23T21:11:56.183Z,55.72
2022-12-23T21:14:59.772Z,78.40
2022-12-23T21:18:03.235Z,70.57
2022-12-23T21:21:06.071Z,54.78
2022-12-23T21:24:09.781Z,85.22
2022-12-23T21:27:12.346Z,58.55
2022-12-23T21:30:15.552Z,72.12
2022-12-23T21:33:18.342Z,87.00
2022-12-23T21:36:23.430Z,43.03
2022-12-23T21:39:26.868Z,29.85
2022-12-23T21:42:29.650Z,28.83
2022-12-23T21:45:32.839Z,24.87
2022-12-23T21:48:36.622Z,31.80
2022-12-23T21:51:41.049Z,27.92
2022-12-23T21:54:44.358Z,28.30
2022-12-23T21:57:47.343Z,25.83
2022-12-23T22:00:50.449Z,27.95
2022-12-23T22:03:54.065Z,27.03
2022-12-23T22:06:56.614Z,27.08
2022-12-23T22:09:59.469Z,27.15
2022-12-23T22:13:02.228Z,26.98
2022-12-23T22:16:09.578Z,23.50
2022-12-23T22:19:13.081Z,28.47
2022-12-23T22:22:16.025Z,25.73
2022-12-23T22:25:18.705Z,25.67
2022-12-23T22:28:22.076Z,28.90
2022-12-23T22:31:31.861Z,32.95
2022-12-23T22:34:34.647Z,34.80
2022-12-23T22:37:37.376Z,31.62
2022-12-23T22:40:40.462Z,35.67
2022-12-23T22:43:42.994Z,28.17
2022-12-23T22:46:45.914Z,28.70
2022-12-23T22:49:48.889Z,25.67
2022-12-23T22:52:51.913Z,25.45
2022-12-23T22:55:59.165Z,23.92
2022-12-23T22:59:02.317Z,58.40
2022-12-23T23:02:05.201Z,105.25
2022-12-23T23:05:12.917Z,84.07
2022-12-23T23:08:15.936Z,59.95
2022-12-23T23:11:19.446Z,48.08
2022-12-23T23:14:22.361Z,36.60
2022-12-23T23:17:27.314Z,31.95
2022-12-23T23:20:30.052Z,33.57
2022-12-23T23:23:33.661Z,32.60
2022-12-23T23:26:36.328Z,34.70
2022-12-23T23:29:39.659Z,37.22
2022-12-23T23:32:42.200Z,41.70
2022-12-23T23:35:45.108Z,101.30
2022-12-23T23:39:32.643Z,49.55
2022-12-23T23:42:35.896Z,40.00
2022-12-23T23:45:39.886Z,28.30
2022-12-23T23:48:42.731Z,40.37
2022-12-23T23:51:45.453Z,39.22
2022-12-23T23:54:48.561Z,39.13
2022-12-23T23:57:51.284Z,81.25
